Time;durP1;ratioP1;P1;durP2;ratioP2;P2;SDS_P1;SDS_P2;PMS_P1;PMS_P2;Temp;Humidity;BMP_temperature;BMP_pressure;BME280_temperature;BME280_humidity;BME280_pressure;Samples;Min_cycle;Max_cycle;Signal;HPM_P1;HPM_P2
2021/04/20 00:00:16;;;;;;;4.40;2.63;;;8.40;68.30;;;;;;5949305;39;20380;-69
2021/04/20 00:04:17;;;;;;;5.60;2.53;;;8.40;68.20;;;;;;5946941;39;20502;-71
2021/04/20 00:08:21;;;;;;;8.13;3.00;;;8.30;68.00;;;;;;5942815;39;20054;-71
2021/04/20 00:12:26;;;;;;;6.55;3.33;;;8.30;67.90;;;;;;5949743;39;20052;-71
2021/04/20 00:16:30;;;;;;;6.15;3.10;;;8.30;68.20;;;;;;5941437;39;20241;-70
2021/04/20 00:20:35;;;;;;;8.60;3.40;;;8.20;68.40;;;;;;5935578;39;20055;-69
2021/04/20 00:24:40;;;;;;;6.10;3.20;;;8.20;68.40;;;;;;5949142;39;20060;-69
2021/04/20 00:28:44;;;;;;;7.20;3.80;;;8.20;68.50;;;;;;5937287;39;20055;-69
2021/04/20 00:32:48;;;;;;;9.23;3.63;;;8.10;68.50;;;;;;5945934;39;20129;-70
2021/04/20 00:36:54;;;;;;;6.57;3.40;;;8.10;68.40;;;;;;5940006;39;20050;-69
2021/04/20 00:41:08;;;;;;;8.00;3.47;;;8.00;68.50;;;;;;5941302;39;20044;-70
2021/04/20 00:45:18;;;;;;;7.15;3.20;;;7.90;68.70;;;;;;5949076;39;20048;-69
2021/04/20 00:49:22;;;;;;;5.72;3.17;;;7.90;68.50;;;;;;5943272;39;20348;-69
2021/04/20 00:53:27;;;;;;;6.07;3.35;;;7.80;68.60;;;;;;5946659;39;20067;-69
2021/04/20 00:57:32;;;;;;;5.22;3.28;;;7.80;68.40;;;;;;5929897;39;20338;-68
2021/04/20 01:01:38;;;;;;;8.85;3.50;;;7.70;68.50;;;;;;5930741;40;20080;-69
2021/04/20 01:05:43;;;;;;;7.22;3.40;;;7.60;68.50;;;;;;5946643;39;20060;-69
2021/04/20 01:09:53;;;;;;;8.05;2.85;;;7.50;68.60;;;;;;5945015;39;20078;-70
2021/04/20 01:14:03;;;;;;;6.40;3.45;;;7.50;68.90;;;;;;5937644;39;20342;-70
2021/04/20 01:18:19;;;;;;;6.63;2.63;;;7.40;68.80;;;;;;5945208;39;20684;-69
2021/04/20 01:22:24;;;;;;;8.07;3.55;;;7.40;68.70;;;;;;5946647;39;20055;-69
2021/04/20 01:26:32;;;;;;;6.47;3.42;;;7.30;69.40;;;;;;5944144;39;20044;-69
2021/04/20 01:30:37;;;;;;;8.45;4.03;;;7.30;68.80;;;;;;5943687;39;20063;-69
2021/04/20 01:34:44;;;;;;;6.00;2.97;;;7.20;68.70;;;;;;5945954;39;20400;-70
2021/04/20 01:38:50;;;;;;;8.23;3.70;;;7.10;68.50;;;;;;5947458;39;20036;-69
2021/04/20 01:42:54;;;;;;;6.88;3.40;;;7.10;68.70;;;;;;5946088;39;20054;-69
2021/04/20 01:47:00;;;;;;;8.13;3.33;;;7.00;68.60;;;;;;5947002;39;20055;-69
2021/04/20 01:51:05;;;;;;;8.30;3.30;;;7.70;69.10;;;;;;5934507;40;20061;-69
2021/04/20 01:55:11;;;;;;;9.18;3.40;;;6.90;68.70;;;;;;5938734;39;20360;-69
2021/04/20 01:59:21;;;;;;;6.43;3.45;;;6.90;68.80;;;;;;5948490;39;20092;-69
2021/04/20 02:03:26;;;;;;;6.63;3.88;;;6.80;68.70;;;;;;5944321;39;20059;-68
2021/04/20 02:07:34;;;;;;;10.02;3.40;;;6.80;68.70;;;;;;5936909;40;20050;-68
2021/04/20 02:11:39;;;;;;;6.60;3.85;;;6.70;69.00;;;;;;5921085;39;20332;-69
2021/04/20 02:15:43;;;;;;;7.95;3.97;;;6.60;68.80;;;;;;5943437;39;20053;-69
2021/04/20 02:19:48;;;;;;;8.57;3.97;;;6.50;68.90;;;;;;5936096;39;20066;-68
2021/04/20 02:23:53;;;;;;;6.70;3.95;;;6.40;68.80;;;;;;5934441;39;20032;-69
2021/04/20 02:27:58;;;;;;;7.65;3.80;;;6.30;69.00;;;;;;5920612;40;20463;-69
2021/04/20 02:32:02;;;;;;;8.63;4.10;;;6.20;69.00;;;;;;5945925;39;20434;-70
2021/04/20 02:36:10;;;;;;;7.82;3.90;;;6.20;69.10;;;;;;5940424;39;20048;-70
2021/04/20 02:40:23;;;;;;;7.43;3.75;;;6.10;69.00;;;;;;5946116;39;20055;-70
2021/04/20 02:44:28;;;;;;;7.80;4.25;;;6.10;69.10;;;;;;5937058;39;20048;-70
2021/04/20 02:48:33;;;;;;;8.00;4.70;;;6.00;69.00;;;;;;5930094;39;20099;-70
2021/04/20 02:52:39;;;;;;;8.27;3.72;;;5.90;69.10;;;;;;5943369;39;20048;-70
2021/04/20 02:56:44;;;;;;;8.13;4.30;;;5.90;69.10;;;;;;5947878;39;20048;-70
2021/04/20 03:01:01;;;;;;;9.57;4.20;;;5.90;69.10;;;;;;5947381;39;20099;-70
2021/04/20 03:05:17;;;;;;;5.72;3.53;;;5.80;69.30;;;;;;5936130;39;20052;-69
2021/04/20 03:09:24;;;;;;;7.70;3.78;;;5.80;69.20;;;;;;5927767;39;20036;-69
2021/04/20 03:13:28;;;;;;;8.32;3.40;;;5.70;68.80;;;;;;5923994;40;20071;-69
2021/04/20 03:17:35;;;;;;;5.40;3.22;;;5.70;68.60;;;;;;5922680;40;20052;-69
2021/04/20 03:21:41;;;;;;;6.55;3.20;;;5.70;68.70;;;;;;5930772;40;20061;-69
2021/04/20 03:25:46;;;;;;;5.38;3.15;;;5.60;68.70;;;;;;5929745;40;20301;-69
2021/04/20 03:29:54;;;;;;;6.63;3.40;;;5.60;68.50;;;;;;5922506;40;20053;-69
2021/04/20 03:34:23;;;;;;;6.82;3.70;;;5.50;68.40;;;;;;5933321;40;20075;-70
2021/04/20 03:38:44;;;;;;;5.57;3.53;;;5.50;68.70;;;;;;5932832;40;20041;-69
2021/04/20 03:42:59;;;;;;;9.40;3.05;;;5.50;69.00;;;;;;5933232;40;20060;-69
2021/04/20 03:47:08;;;;;;;8.40;3.60;;;5.50;69.50;;;;;;5919730;40;20122;-69
2021/04/20 03:51:18;;;;;;;10.30;3.92;;;5.40;69.90;;;;;;5928546;40;20068;-70
2021/04/20 03:55:26;;;;;;;6.15;3.50;;;5.40;69.60;;;;;;5924446;40;20118;-69
2021/04/20 03:59:34;;;;;;;8.25;3.63;;;5.40;69.20;;;;;;5932166;40;20075;-69
2021/04/20 04:03:40;;;;;;;8.18;3.30;;;5.40;68.70;;;;;;5934579;40;20311;-69
2021/04/20 04:07:46;;;;;;;5.60;2.90;;;5.30;68.40;;;;;;5935382;39;20063;-70
2021/04/20 04:12:00;;;;;;;6.13;3.42;;;5.30;68.30;;;;;;5945907;39;20059;-69
2021/04/20 04:16:06;;;;;;;5.88;3.47;;;5.20;68.40;;;;;;5945840;39;20607;-68
2021/04/20 04:20:19;;;;;;;7.47;3.53;;;5.20;68.30;;;;;;5938194;40;20511;-68
2021/04/20 04:24:28;;;;;;;6.13;3.33;;;5.20;68.70;;;;;;5924314;39;20377;-69
2021/04/20 04:28:37;;;;;;;7.65;3.55;;;5.20;68.70;;;;;;5935369;40;20056;-69
2021/04/20 04:32:46;;;;;;;5.97;3.25;;;5.20;68.60;;;;;;5945917;39;20040;-69
2021/04/20 04:36:50;;;;;;;6.63;3.70;;;5.20;68.70;;;;;;5944889;39;20366;-68
2021/04/20 04:40:58;;;;;;;7.68;3.55;;;5.20;69.20;;;;;;5947407;39;20487;-69
2021/04/20 04:45:06;;;;;;;9.52;4.40;;;5.20;69.60;;;;;;5944351;39;20047;-68
2021/04/20 04:49:17;;;;;;;10.00;3.70;;;5.30;69.90;;;;;;5946191;39;20063;-69
2021/04/20 04:53:22;;;;;;;7.53;3.70;;;5.30;70.30;;;;;;5942390;39;20437;-68
2021/04/20 04:57:27;;;;;;;11.32;4.05;;;5.40;70.60;;;;;;5947530;39;20095;-69
2021/04/20 05:01:32;;;;;;;7.05;4.65;;;5.50;70.90;;;;;;5946172;39;20058;-69
2021/04/20 05:05:38;;;;;;;8.85;4.10;;;5.60;70.10;;;;;;5933559;39;20048;-69
2021/04/20 05:09:42;;;;;;;10.98;5.43;;;5.70;70.70;;;;;;5945064;39;20059;-69
2021/04/20 05:13:47;;;;;;;7.75;4.18;;;5.90;70.90;;;;;;5945676;39;20040;-69
2021/04/20 05:17:51;;;;;;;8.40;4.18;;;6.00;71.60;;;;;;5935924;39;20068;-69
2021/04/20 05:21:59;;;;;;;7.00;3.65;;;6.20;72.00;;;;;;5942687;39;20055;-70
2021/04/20 05:26:03;;;;;;;10.52;4.55;;;6.40;71.90;;;;;;5936898;39;20056;-70
2021/04/20 05:30:08;;;;;;;8.73;4.15;;;6.60;72.40;;;;;;5946606;39;20048;-70
2021/04/20 05:34:14;;;;;;;7.85;3.78;;;6.80;72.50;;;;;;5945990;39;20080;-69
2021/04/20 05:38:19;;;;;;;9.68;4.13;;;7.10;72.90;;;;;;5944828;39;20056;-70
2021/04/20 05:42:23;;;;;;;8.73;3.97;;;7.40;73.50;;;;;;5947399;39;20457;-69
2021/04/20 05:46:30;;;;;;;10.55;3.63;;;7.60;73.20;;;;;;5946095;39;20129;-69
2021/04/20 05:50:37;;;;;;;8.68;3.67;;;7.80;72.50;;;;;;5936457;39;20051;-69
2021/04/20 05:54:41;;;;;;;9.30;3.80;;;8.10;72.10;;;;;;5933978;39;20400;-70
2021/04/20 05:58:50;;;;;;;6.90;3.35;;;8.30;72.00;;;;;;5939467;39;20048;-70
2021/04/20 06:02:56;;;;;;;9.02;3.60;;;8.50;70.90;;;;;;5947411;39;20054;-70
2021/04/20 06:07:02;;;;;;;12.13;3.67;;;8.70;71.00;;;;;;5945695;39;20076;-70
2021/04/20 06:11:08;;;;;;;10.13;3.20;;;9.00;70.70;;;;;;5942502;39;20062;-68
2021/04/20 06:15:14;;;;;;;9.35;3.33;;;9.30;69.80;;;;;;5939893;39;20072;-66
2021/04/20 06:19:21;;;;;;;10.35;3.95;;;9.50;69.30;;;;;;5930575;39;20458;-70
2021/04/20 06:23:29;;;;;;;6.60;3.13;;;9.80;68.60;;;;;;5937367;39;20048;-71
2021/04/20 06:27:37;;;;;;;8.02;3.88;;;10.00;68.50;;;;;;5946226;39;20106;-71
2021/04/20 06:31:44;;;;;;;9.65;4.32;;;10.10;68.00;;;;;;5948951;39;20466;-71
2021/04/20 06:35:49;;;;;;;8.45;3.83;;;10.10;67.90;;;;;;5944565;39;20070;-71
2021/04/20 06:39:53;;;;;;;7.20;3.88;;;10.30;68.00;;;;;;5952627;39;20055;-71
2021/04/20 06:44:14;;;;;;;8.55;3.47;;;10.50;67.40;;;;;;5947966;39;20161;-71
2021/04/20 06:48:42;;;;;;;9.88;4.03;;;10.60;67.70;;;;;;5950939;39;20038;-72
2021/04/20 06:52:57;;;;;;;7.40;3.47;;;10.90;67.10;;;;;;5948003;39;20079;-71
2021/04/20 06:57:14;;;;;;;11.32;3.95;;;11.00;66.70;;;;;;5938020;40;20153;-72
2021/04/20 07:01:30;;;;;;;8.25;3.85;;;11.10;66.10;;;;;;5954538;39;20063;-71
2021/04/20 07:05:56;;;;;;;8.05;4.10;;;11.30;65.80;;;;;;5950250;39;20121;-71
2021/04/20 07:10:06;;;;;;;7.28;3.47;;;11.40;65.70;;;;;;5925946;40;20057;-71
2021/04/20 07:14:17;;;;;;;10.70;3.70;;;11.50;65.10;;;;;;5920821;40;20053;-71
2021/04/20 07:18:43;;;;;;;11.30;3.28;;;11.80;64.90;;;;;;5919018;40;20052;-72
2021/04/20 07:23:08;;;;;;;7.22;3.38;;;12.00;62.80;;;;;;5919830;39;20114;-71
2021/04/20 07:27:43;;;;;;;9.35;3.28;;;12.20;63.20;;;;;;5928203;40;20075;-71
2021/04/20 07:31:53;;;;;;;7.85;3.30;;;12.60;63.50;;;;;;5914719;40;20048;-72
2021/04/20 07:36:13;;;;;;;5.32;2.58;;;12.80;63.10;;;;;;5935812;40;20057;-71
2021/04/20 07:40:55;;;;;;;11.60;2.95;;;13.00;62.30;;;;;;5932362;40;20056;-71
2021/04/20 07:45:21;;;;;;;6.57;2.78;;;13.20;60.50;;;;;;5864289;40;20554;-71
2021/04/20 07:49:52;;;;;;;9.25;3.60;;;13.30;61.00;;;;;;5931616;40;20385;-71
2021/04/20 07:54:03;;;;;;;6.18;3.10;;;13.30;59.40;;;;;;5912817;40;20045;-72
2021/04/20 07:58:12;;;;;;;5.75;2.95;;;13.40;60.10;;;;;;5922141;40;20052;-71
2021/04/20 08:02:39;;;;;;;8.13;3.08;;;13.50;60.90;;;;;;5920009;40;20225;-72
2021/04/20 08:06:46;;;;;;;8.20;3.38;;;13.70;60.00;;;;;;5921114;40;20403;-72
2021/04/20 08:11:13;;;;;;;5.43;2.67;;;13.80;60.50;;;;;;5951821;39;20060;-72
2021/04/20 08:15:25;;;;;;;6.95;2.30;;;14.00;59.30;;;;;;5952634;39;20055;-72
2021/04/20 08:19:37;;;;;;;5.95;2.55;;;14.20;57.40;;;;;;5951829;39;21401;-71
2021/04/20 08:23:48;;;;;;;7.03;2.45;;;14.20;56.70;;;;;;5952895;39;20047;-72
2021/04/20 08:28:15;;;;;;;11.38;2.88;;;14.30;58.50;;;;;;5955756;39;20326;-72
2021/04/20 08:32:24;;;;;;;9.02;3.42;;;14.50;58.60;;;;;;5954606;39;20101;-72
2021/04/20 08:36:41;;;;;;;6.32;3.33;;;14.70;57.40;;;;;;5952115;39;20048;-72
2021/04/20 08:41:06;;;;;;;9.85;4.43;;;14.80;55.50;;;;;;5940527;39;20580;-72
2021/04/20 08:45:33;;;;;;;10.32;4.65;;;14.80;57.20;;;;;;5954359;39;20301;-72
2021/04/20 08:49:56;;;;;;;9.30;4.63;;;14.90;56.40;;;;;;5938553;40;20491;-74
2021/04/20 08:54:21;;;;;;;9.82;4.82;;;14.90;55.90;;;;;;5954591;39;20036;-72
2021/04/20 08:59:03;;;;;;;8.80;4.78;;;15.00;55.40;;;;;;5952873;39;20078;-72
2021/04/20 09:03:45;;;;;;;6.83;3.37;;;15.30;57.20;;;;;;5939938;39;20474;-72
2021/04/20 09:07:59;;;;;;;6.32;3.30;;;15.30;55.40;;;;;;5947169;39;20141;-72
2021/04/20 09:12:07;;;;;;;9.73;3.58;;;15.20;55.40;;;;;;5947533;39;20037;-72
2021/04/20 09:16:19;;;;;;;9.35;3.22;;;15.30;56.90;;;;;;5947251;40;20052;-72
2021/04/20 09:20:56;;;;;;;7.25;2.95;;;15.40;54.30;;;;;;5950453;39;20100;-72
2021/04/20 09:25:04;;;;;;;6.32;3.10;;;15.50;51.50;;;;;;5949951;39;20044;-72
2021/04/20 09:29:53;;;;;;;7.63;3.33;;;15.30;53.80;;;;;;5933889;39;20056;-72
2021/04/20 09:33:57;;;;;;;6.82;3.67;;;15.80;52.80;;;;;;5949121;39;20178;-72
2021/04/20 09:38:03;;;;;;;6.07;3.40;;;16.10;55.00;;;;;;5948916;39;20382;-72
2021/04/20 09:42:10;;;;;;;9.52;3.58;;;16.30;54.00;;;;;;5950042;39;20405;-72
2021/04/20 09:46:29;;;;;;;5.55;2.47;;;16.40;54.50;;;;;;5934528;39;20071;-72
2021/04/20 09:51:02;;;;;;;6.00;2.45;;;16.50;53.40;;;;;;5938453;40;20056;-72
2021/04/20 09:55:14;;;;;;;6.30;2.50;;;16.60;51.80;;;;;;5946997;39;20060;-72
2021/04/20 09:59:23;;;;;;;5.88;1.88;;;16.80;51.30;;;;;;5952837;39;20167;-73
2021/04/20 10:03:43;;;;;;;4.50;2.30;;;17.10;51.70;;;;;;5947619;39;20416;-72
2021/04/20 10:08:38;;;;;;;5.32;2.28;;;17.00;50.00;;;;;;5949765;39;20071;-73
2021/04/20 10:12:59;;;;;;;7.68;3.00;;;17.00;49.30;;;;;;5946195;39;20068;-72
2021/04/20 10:17:15;;;;;;;6.33;2.13;;;17.00;50.10;;;;;;5950788;39;20048;-72
2021/04/20 10:21:41;;;;;;;4.95;2.42;;;17.00;48.60;;;;;;5939878;39;20114;-72
2021/04/20 10:25:53;;;;;;;5.20;2.90;;;17.00;46.60;;;;;;5944064;39;20048;-73
2021/04/20 10:30:11;;;;;;;6.15;2.33;;;16.90;48.70;;;;;;5951669;39;20056;-72
2021/04/20 10:34:19;;;;;;;5.28;2.30;;;17.00;48.30;;;;;;5933639;40;20043;-72
2021/04/20 10:38:29;;;;;;;5.82;2.50;;;17.00;48.10;;;;;;5944925;39;20082;-72
2021/04/20 10:42:37;;;;;;;5.38;2.38;;;17.00;47.90;;;;;;5940428;39;20464;-72
2021/04/20 10:46:49;;;;;;;5.20;2.72;;;17.00;48.10;;;;;;5946178;39;20447;-72
2021/04/20 10:50:54;;;;;;;7.97;2.60;;;17.20;49.60;;;;;;5946018;39;20051;-72
2021/04/20 10:55:08;;;;;;;6.78;2.83;;;17.50;49.40;;;;;;5947752;39;20292;-72
2021/04/20 10:59:33;;;;;;;5.70;2.70;;;17.50;48.50;;;;;;5944877;39;20049;-72
2021/04/20 11:03:39;;;;;;;7.30;2.47;;;17.60;46.60;;;;;;5938967;39;20052;-72
2021/04/20 11:07:50;;;;;;;7.97;3.00;;;17.60;48.10;;;;;;5934411;39;20404;-72
2021/04/20 11:11:55;;;;;;;6.72;2.80;;;17.60;48.40;;;;;;5932281;40;20067;-72
2021/04/20 11:15:59;;;;;;;6.68;2.97;;;17.60;48.40;;;;;;5932865;40;20045;-72
2021/04/20 11:20:10;;;;;;;9.07;3.15;;;17.50;47.90;;;;;;5930804;40;20118;-72
2021/04/20 11:24:21;;;;;;;6.97;3.03;;;17.60;49.20;;;;;;5926279;40;20037;-71
2021/04/20 11:28:41;;;;;;;6.55;3.08;;;17.60;49.20;;;;;;5925547;40;20052;-73
2021/04/20 11:32:52;;;;;;;7.43;3.00;;;17.80;49.00;;;;;;5933150;40;20055;-72
2021/04/20 11:37:04;;;;;;;6.63;2.85;;;17.80;48.50;;;;;;5931911;40;20052;-72
2021/04/20 11:41:12;;;;;;;4.10;2.53;;;17.70;47.00;;;;;;5933005;40;20147;-72
2021/04/20 11:45:24;;;;;;;7.40;3.10;;;17.60;48.80;;;;;;5935306;39;20126;-73
2021/04/20 11:49:30;;;;;;;6.15;2.78;;;17.70;48.30;;;;;;5935651;40;20059;-72
2021/04/20 11:53:43;;;;;;;8.32;2.75;;;17.60;46.90;;;;;;5932828;40;20137;-72
2021/04/20 11:57:48;;;;;;;6.60;2.75;;;17.60;48.10;;;;;;5925071;40;20452;-73
2021/04/20 12:01:54;;;;;;;5.05;2.70;;;17.70;47.70;;;;;;5919021;40;20060;-72
2021/04/20 12:06:00;;;;;;;4.57;2.70;;;17.70;47.20;;;;;;5921765;40;20095;-72
2021/04/20 12:10:14;;;;;;;6.43;2.65;;;17.70;47.00;;;;;;5925225;40;20059;-72
2021/04/20 12:14:22;;;;;;;6.63;2.40;;;17.70;46.70;;;;;;5925872;40;20457;-72
2021/04/20 12:18:29;;;;;;;5.68;2.70;;;17.70;46.50;;;;;;5925535;40;20053;-72
2021/04/20 12:22:34;;;;;;;10.40;2.65;;;17.60;46.20;;;;;;5929665;40;20056;-72
2021/04/20 12:26:43;;;;;;;4.97;2.83;;;17.70;47.10;;;;;;5934774;40;20056;-72
2021/04/20 12:30:49;;;;;;;6.45;3.10;;;17.70;46.80;;;;;;5925116;40;20419;-73
2021/04/20 12:34:57;;;;;;;5.80;2.53;;;17.80;46.20;;;;;;5927746;40;20157;-72
2021/04/20 12:39:04;;;;;;;6.88;2.70;;;17.80;46.30;;;;;;5933291;40;20068;-72
2021/04/20 12:43:06;;;;;;;7.10;3.10;;;17.90;48.00;;;;;;5912977;40;20060;-72
2021/04/20 12:47:13;;;;;;;8.07;3.40;;;18.00;47.60;;;;;;5933196;40;20335;-72
2021/04/20 12:51:19;;;;;;;6.65;3.38;;;18.10;47.10;;;;;;5932558;40;20068;-72
2021/04/20 12:55:30;;;;;;;7.43;2.72;;;18.10;47.00;;;;;;5917157;40;20044;-72
2021/04/20 12:59:37;;;;;;;5.30;2.78;;;18.00;46.70;;;;;;5925387;40;20459;-72
2021/04/20 13:03:43;;;;;;;6.57;3.10;;;17.80;46.60;;;;;;5932265;40;20052;-73
2021/04/20 13:07:50;;;;;;;5.20;3.30;;;17.60;46.60;;;;;;5930167;40;20037;-72
2021/04/20 13:11:58;;;;;;;11.20;3.00;;;17.70;46.20;;;;;;5940003;40;20044;-72
2021/04/20 13:16:07;;;;;;;7.22;3.45;;;17.70;48.10;;;;;;5950621;39;20486;-72
2021/04/20 13:20:20;;;;;;;4.80;2.90;;;17.90;47.00;;;;;;5951339;39;20044;-72
2021/04/20 13:24:28;;;;;;;7.68;3.15;;;17.90;46.70;;;;;;5934139;39;20032;-72
2021/04/20 13:28:38;;;;;;;9.18;3.40;;;17.70;46.70;;;;;;5946447;39;20055;-72
2021/04/20 13:32:49;;;;;;;7.40;3.30;;;17.50;46.70;;;;;;5945252;39;20405;-72
2021/04/20 13:36:55;;;;;;;6.93;2.70;;;17.60;47.00;;;;;;5950785;39;20324;-72
2021/04/20 13:41:02;;;;;;;6.65;3.10;;;17.70;46.60;;;;;;5948003;39;20101;-72
2021/04/20 13:45:13;;;;;;;6.72;3.33;;;17.60;46.10;;;;;;5949953;39;20048;-72
2021/04/20 13:49:18;;;;;;;4.55;2.97;;;17.70;46.90;;;;;;5875832;39;20508;-73
2021/04/20 13:53:35;;;;;;;7.47;3.25;;;17.90;47.50;;;;;;5894616;40;20111;-73
2021/04/20 13:57:50;;;;;;;10.07;3.45;;;17.80;46.80;;;;;;5931537;40;20060;-73
2021/04/20 14:01:59;;;;;;;7.43;2.80;;;17.90;46.10;;;;;;5934335;40;20521;-72
2021/04/20 14:06:09;;;;;;;5.30;2.92;;;17.80;45.60;;;;;;5923259;40;20718;-73
2021/04/20 14:10:22;;;;;;;6.00;2.88;;;17.70;46.20;;;;;;5932608;40;20323;-72
2021/04/20 14:14:39;;;;;;;10.55;3.60;;;17.60;45.90;;;;;;5932738;40;20768;-72
2021/04/20 14:18:44;;;;;;;11.60;3.50;;;17.60;45.50;;;;;;5928266;40;20128;-72
2021/04/20 14:22:59;;;;;;;7.70;3.25;;;17.50;45.00;;;;;;5934739;40;20391;-72
2021/04/20 14:27:07;;;;;;;7.35;3.08;;;17.30;46.10;;;;;;5930379;40;20048;-73
2021/04/20 14:31:12;;;;;;;9.77;3.10;;;17.30;46.30;;;;;;5920872;40;20126;-72
2021/04/20 14:35:22;;;;;;;8.95;3.25;;;17.20;46.30;;;;;;5932601;40;20064;-72
2021/04/20 14:39:29;;;;;;;6.85;3.72;;;17.00;46.20;;;;;;5930828;40;20087;-72
2021/04/20 14:43:34;;;;;;;6.53;3.55;;;17.30;46.40;;;;;;5924308;40;20052;-72
2021/04/20 14:47:40;;;;;;;8.68;4.13;;;17.30;46.70;;;;;;5926292;40;20405;-72
2021/04/20 14:51:50;;;;;;;11.75;6.70;;;17.20;46.00;;;;;;5919931;40;20052;-73
2021/04/20 14:55:57;;;;;;;7.53;3.40;;;17.10;45.90;;;;;;5931597;40;20052;-72
2021/04/20 15:00:08;;;;;;;5.70;2.90;;;17.10;46.80;;;;;;5931843;40;20176;-73
2021/04/20 15:04:15;;;;;;;7.38;2.85;;;17.20;46.60;;;;;;5919701;40;20346;-72
2021/04/20 15:08:22;;;;;;;7.15;3.25;;;17.00;46.60;;;;;;5929797;40;20058;-75
2021/04/20 15:12:51;;;;;;;9.52;3.33;;;17.00;47.10;;;;;;5928853;40;20056;-72
2021/04/20 15:17:00;;;;;;;8.00;3.47;;;17.10;47.40;;;;;;5934440;40;20088;-72
2021/04/20 15:21:14;;;;;;;7.53;3.70;;;17.10;46.70;;;;;;5930933;40;20067;-72
2021/04/20 15:25:23;;;;;;;6.78;3.83;;;17.10;47.20;;;;;;5926030;40;20054;-68
2021/04/20 15:29:35;;;;;;;7.00;3.50;;;17.10;47.50;;;;;;5926862;40;20055;-68
2021/04/20 15:33:46;;;;;;;7.25;3.53;;;17.10;46.80;;;;;;5923851;40;20044;-68
2021/04/20 15:37:54;;;;;;;5.25;3.10;;;17.00;46.70;;;;;;5929649;40;20051;-68
2021/04/20 15:41:59;;;;;;;8.02;4.18;;;17.10;47.50;;;;;;5919067;40;20090;-68
2021/04/20 15:46:08;;;;;;;10.88;3.70;;;17.00;46.50;;;;;;5919577;40;20132;-68
2021/04/20 15:50:18;;;;;;;12.15;4.00;;;17.00;46.90;;;;;;5924944;40;20138;-68
2021/04/20 15:54:24;;;;;;;9.00;4.22;;;17.00;46.90;;;;;;5928775;40;20056;-68
2021/04/20 15:58:32;;;;;;;6.30;3.65;;;16.90;46.60;;;;;;5927473;40;20060;-68
2021/04/20 16:02:37;;;;;;;9.32;3.70;;;16.90;47.70;;;;;;5929529;40;20118;-68
2021/04/20 16:06:43;;;;;;;9.25;4.28;;;16.90;48.20;;;;;;5922706;40;20051;-68
2021/04/20 16:10:57;;;;;;;6.32;3.40;;;16.90;47.40;;;;;;5926055;40;20072;-68
2021/04/20 16:15:14;;;;;;;7.22;3.75;;;16.90;47.70;;;;;;5925399;40;20465;-69
2021/04/20 16:19:20;;;;;;;6.70;3.97;;;16.80;47.50;;;;;;5926848;40;20048;-68
2021/04/20 16:23:32;;;;;;;9.23;3.92;;;16.80;47.20;;;;;;5924452;40;20057;-68
2021/04/20 16:27:38;;;;;;;6.90;3.60;;;16.80;47.40;;;;;;5926802;40;20056;-68
2021/04/20 16:31:49;;;;;;;9.57;3.60;;;16.80;47.90;;;;;;5925851;40;20041;-68
2021/04/20 16:35:57;;;;;;;12.77;3.77;;;16.70;48.10;;;;;;5921750;40;20146;-68
2021/04/20 16:40:24;;;;;;;6.55;3.20;;;16.70;49.00;;;;;;5927463;40;20079;-67
2021/04/20 16:44:31;;;;;;;7.40;4.10;;;16.70;48.10;;;;;;5918873;40;20456;-68
2021/04/20 16:48:45;;;;;;;8.10;3.72;;;16.70;47.80;;;;;;5927075;40;20390;-69
2021/04/20 16:53:00;;;;;;;5.93;3.08;;;16.70;48.70;;;;;;5918118;40;20084;-68
2021/04/20 16:57:10;;;;;;;6.70;2.63;;;16.70;48.50;;;;;;5929952;40;20106;-68
2021/04/20 17:01:45;;;;;;;9.25;2.10;;;16.60;48.40;;;;;;5925809;40;20164;-67
2021/04/20 17:06:05;;;;;;;7.57;2.08;;;16.60;46.60;;;;;;5919790;40;20052;-68
2021/04/20 17:10:46;;;;;;;8.02;2.38;;;16.50;47.60;;;;;;5914147;40;20122;-68
2021/04/20 17:15:17;;;;;;;11.40;2.50;;;16.40;47.30;;;;;;5926499;40;20108;-67
2021/04/20 17:19:26;;;;;;;6.95;2.22;;;16.40;48.20;;;;;;5927312;40;20162;-68
2021/04/20 17:23:46;;;;;;;7.80;1.77;;;16.30;48.70;;;;;;5924929;40;20061;-69
2021/04/20 17:28:02;;;;;;;6.05;2.35;;;16.20;47.20;;;;;;5915929;40;20080;-67
2021/04/20 17:32:33;;;;;;;9.25;2.53;;;16.10;47.50;;;;;;5909189;40;20041;-68
2021/04/20 17:36:49;;;;;;;7.75;2.00;;;16.00;48.50;;;;;;5926590;40;20044;-68
2021/04/20 17:41:17;;;;;;;7.20;2.47;;;15.90;48.50;;;;;;5925974;40;20064;-67
2021/04/20 17:45:44;;;;;;;6.65;2.65;;;15.90;48.60;;;;;;5923075;40;20060;-68
2021/04/20 17:50:02;;;;;;;7.50;2.80;;;15.80;48.90;;;;;;5923042;40;20558;-68
2021/04/20 17:54:25;;;;;;;9.32;2.83;;;15.70;49.10;;;;;;5926386;40;20449;-67
2021/04/20 17:59:17;;;;;;;6.68;2.28;;;15.60;47.30;;;;;;5912076;40;20064;-68
2021/04/20 18:03:29;;;;;;;5.35;2.10;;;15.50;49.60;;;;;;5920381;40;20066;-68
2021/04/20 18:08:10;;;;;;;7.97;2.58;;;15.30;49.40;;;;;;5926925;40;20061;-68
2021/04/20 18:12:23;;;;;;;6.50;2.38;;;15.30;49.10;;;;;;5925259;40;20357;-68
2021/04/20 18:16:35;;;;;;;6.88;2.05;;;15.10;49.50;;;;;;5921202;40;20068;-68
2021/04/20 18:21:00;;;;;;;7.18;2.30;;;15.00;49.50;;;;;;5925026;40;20142;-68
2021/04/20 18:25:29;;;;;;;13.48;2.60;;;15.00;50.30;;;;;;5922631;40;20056;-68
2021/04/20 18:29:56;;;;;;;6.15;2.50;;;14.90;50.20;;;;;;5920654;40;20660;-67
2021/04/20 18:34:35;;;;;;;7.45;2.40;;;14.80;51.10;;;;;;5918021;40;20041;-68
2021/04/20 18:39:02;;;;;;;4.40;2.47;;;14.20;50.30;;;;;;5927894;40;20122;-70
2021/04/20 18:43:26;;;;;;;7.43;2.30;;;14.60;50.60;;;;;;5920729;40;20339;-70
2021/04/20 18:47:46;;;;;;;10.00;2.83;;;14.50;50.90;;;;;;5918446;40;20058;-70
2021/04/20 18:51:56;;;;;;;7.60;2.63;;;14.40;51.00;;;;;;5927184;40;20565;-70
2021/04/20 18:56:08;;;;;;;5.70;2.55;;;14.20;51.10;;;;;;5928315;40;20044;-69
2021/04/20 19:00:25;;;;;;;6.28;2.45;;;14.20;51.40;;;;;;5920942;40;20048;-69
2021/04/20 19:04:46;;;;;;;9.68;3.00;;;14.10;51.40;;;;;;5918568;40;20126;-69
2021/04/20 19:09:17;;;;;;;8.50;2.92;;;14.00;51.50;;;;;;5929369;40;20084;-70
2021/04/20 19:13:39;;;;;;;9.55;2.83;;;13.90;51.60;;;;;;5926679;40;20061;-69
2021/04/20 19:18:02;;;;;;;9.73;3.17;;;13.90;52.10;;;;;;5929046;40;20088;-70
2021/04/20 19:22:09;;;;;;;;;;;13.80;51.90;;;;;;5922210;40;20053;-70
2021/04/20 19:26:16;;;;;;;8.20;3.05;;;13.60;52.90;;;;;;5923394;40;19951;-69
2021/04/20 19:30:22;;;;;;;5.57;2.80;;;13.60;52.10;;;;;;5922783;40;20037;-70
2021/04/20 19:34:32;;;;;;;10.48;3.10;;;13.50;52.10;;;;;;5919299;40;20165;-70
2021/04/20 19:38:45;;;;;;;7.97;3.00;;;13.40;52.10;;;;;;5927239;40;20064;-70
2021/04/20 19:43:19;;;;;;;8.20;3.38;;;13.40;52.30;;;;;;5931694;40;20085;-70
2021/04/20 19:47:27;;;;;;;7.97;3.33;;;13.30;52.30;;;;;;5930826;40;20056;-71
2021/04/20 19:51:39;;;;;;;9.48;2.88;;;13.20;52.40;;;;;;5926956;40;20408;-70
2021/04/20 19:55:45;;;;;;;10.43;3.30;;;13.20;52.60;;;;;;5920122;40;20077;-70
2021/04/20 19:59:52;;;;;;;7.63;2.97;;;13.10;52.60;;;;;;5929104;40;20515;-71
2021/04/20 20:03:59;;;;;;;7.55;3.00;;;13.00;52.70;;;;;;5913109;40;20052;-70
2021/04/20 20:08:13;;;;;;;7.28;3.20;;;12.90;52.80;;;;;;5927074;40;20032;-71
2021/04/20 20:12:19;;;;;;;6.63;3.08;;;12.80;53.60;;;;;;5921636;40;20137;-70
2021/04/20 20:16:33;;;;;;;6.07;3.15;;;12.70;53.00;;;;;;5929259;40;20377;-70
2021/04/20 20:20:49;;;;;;;7.20;3.33;;;12.70;53.20;;;;;;5930673;40;20076;-70
2021/04/20 20:24:56;;;;;;;9.38;3.72;;;12.60;53.10;;;;;;5929244;40;20059;-70
2021/04/20 20:29:07;;;;;;;11.90;4.20;;;12.80;53.70;;;;;;5932551;40;20066;-70
2021/04/20 20:33:11;;;;;;;10.23;3.80;;;12.40;53.50;;;;;;5931315;40;20328;-71
2021/04/20 20:37:16;;;;;;;8.43;3.92;;;12.40;53.50;;;;;;5929381;40;20079;-72
2021/04/20 20:41:39;;;;;;;7.82;3.65;;;12.30;53.60;;;;;;5931879;40;20057;-70
2021/04/20 20:45:49;;;;;;;9.25;4.25;;;12.20;53.70;;;;;;5921829;40;20299;-70
2021/04/20 20:49:58;;;;;;;7.35;3.78;;;12.10;53.80;;;;;;5921605;40;20096;-70
2021/04/20 20:54:07;;;;;;;9.75;3.85;;;12.00;53.80;;;;;;5931983;40;20301;-71
2021/04/20 20:58:44;;;;;;;7.35;3.60;;;11.90;54.10;;;;;;5930313;40;20159;-71
2021/04/20 21:02:57;;;;;;;8.85;4.40;;;11.90;54.20;;;;;;5922346;40;20056;-71
2021/04/20 21:07:15;;;;;;;10.30;4.90;;;11.70;54.20;;;;;;5929413;40;20618;-71
2021/04/20 21:11:20;;;;;;;10.48;4.25;;;11.70;54.30;;;;;;5930813;40;20122;-71
2021/04/20 21:15:33;;;;;;;9.32;4.65;;;11.60;54.50;;;;;;5922654;40;20064;-71
2021/04/20 21:19:42;;;;;;;10.82;4.72;;;11.50;54.70;;;;;;5916812;40;21198;-70
2021/04/20 21:24:02;;;;;;;10.93;4.68;;;11.40;54.90;;;;;;5930010;40;20061;-70
2021/04/20 21:28:11;;;;;;;12.07;5.50;;;11.30;55.20;;;;;;5925599;40;20418;-70
2021/04/20 21:32:24;;;;;;;16.27;5.55;;;11.20;55.30;;;;;;5922260;40;20041;-69
2021/04/20 21:36:34;;;;;;;9.70;5.13;;;11.20;55.50;;;;;;5930554;40;20044;-70
2021/04/20 21:40:40;;;;;;;9.27;5.85;;;11.10;55.70;;;;;;5919594;40;20051;-70
2021/04/20 21:44:44;;;;;;;11.10;5.75;;;11.00;56.00;;;;;;5917964;40;20081;-70
2021/04/20 21:48:46;;;;;;;9.90;6.18;;;10.90;56.10;;;;;;5919275;40;20310;-70
2021/04/20 21:52:55;;;;;;;10.60;5.78;;;10.80;56.30;;;;;;5927427;40;20041;-70